Time;durP1;ratioP1;P1;durP2;ratioP2;P2;SDS_P1;SDS_P2;PMS_P1;PMS_P2;Temp;Humidity;BMP_temperature;BMP_pressure;BME280_temperature;BME280_humidity;BME280_pressure;Samples;Min_cycle;Max_cycle;Signal;HPM_P1;HPM_P2
2023/01/13 00:00:45;;;;;;;;;;;;;;;13.29;77.72;99930.97;1051737;28;726;-69
2023/01/13 00:01:37;;;;;;;;;;;;;;;13.29;77.17;99927.44;1051287;28;1174;-70
2023/01/13 00:02:27;;;;;;;;;;;;;;;13.28;77.56;99925.75;1048511;28;665;-70
2023/01/13 00:03:18;;;;;;;;;;;;;;;13.29;77.38;99920.28;1047990;28;717;-70
2023/01/13 00:04:08;;;;;;;;;;;;;;;13.30;77.60;99926.47;1048011;28;638;-70
2023/01/13 00:04:58;;;;;;;;;;;;;;;13.28;77.02;99910.56;1050373;28;1175;-70
2023/01/13 00:05:49;;;;;;;;;;;;;;;13.28;77.52;99917.72;1048037;28;650;-70
2023/01/13 00:06:39;;;;;;;;;;;;;;;13.24;77.69;99919.88;1048043;28;1254;-70
2023/01/13 00:07:30;;;;;;;;;;;;;;;13.26;77.71;99912.53;1048331;28;641;-70
2023/01/13 00:08:20;;;;;;;;;;;;;;;13.26;77.62;99917.88;1047609;28;683;-70
2023/01/13 00:09:11;;;;;;;;;;;;;;;13.27;77.65;99929.41;1051899;28;704;-70
2023/01/13 00:10:01;;;;;;;;;;;;;;;13.28;77.64;99921.25;1052114;28;772;-70
2023/01/13 00:10:51;;;;;;;;;;;;;;;13.28;77.77;99923.94;1051655;28;1162;-70
2023/01/13 00:11:42;;;;;;;;;;;;;;;13.29;77.11;99919.44;1051717;28;803;-70
2023/01/13 00:12:32;;;;;;;;;;;;;;;13.28;77.52;99917.72;1051743;28;657;-70
2023/01/13 00:13:26;;;;;;;;;;;;;;;13.26;77.68;99917.88;1051299;28;1135;-70
2023/01/13 00:14:17;;;;;;;;;;;;;;;13.25;77.01;99926.91;1051632;28;615;-70
2023/01/13 00:15:07;;;;;;;;;;;;;;;13.26;77.42;99911.66;1051433;28;1204;-70
2023/01/13 00:15:58;;;;;;;;;;;;;;;13.26;77.50;99909.84;1051902;28;630;-70
2023/01/13 00:16:48;;;;;;;;;;;;;;;13.27;77.60;99914.22;1049158;28;1020;-70
2023/01/13 00:17:39;;;;;;;;;;;;;;;13.25;77.07;99918.88;1051941;28;660;-70
2023/01/13 00:18:29;;;;;;;;;;;;;;;13.23;77.52;99920.84;1048456;28;1973;-70
2023/01/13 00:19:19;;;;;;;;;;;;;;;13.23;77.25;99920.84;1051828;28;606;-70
2023/01/13 00:20:10;;;;;;;;;;;;;;;13.22;77.63;99915.63;1049023;28;984;-70
2023/01/13 00:21:00;;;;;;;;;;;;;;;13.25;77.67;99920.72;1051728;28;677;-70
2023/01/13 00:21:51;;;;;;;;;;;;;;;13.24;77.74;99919.03;1049295;28;1150;-70
2023/01/13 00:22:41;;;;;;;;;;;;;;;13.25;77.55;99913.53;1051609;28;875;-70
2023/01/13 00:23:32;;;;;;;;;;;;;;;13.24;77.06;99903.81;1048279;28;728;-70
2023/01/13 00:24:22;;;;;;;;;;;;;;;13.25;77.22;99910.00;1048748;28;737;-70
2023/01/13 00:25:12;;;;;;;;;;;;;;;13.25;77.51;99918.88;1051856;28;701;-70
2023/01/13 00:26:03;;;;;;;;;;;;;;;13.24;77.43;99924.38;1052668;28;1221;-70
2023/01/13 00:26:53;;;;;;;;;;;;;;;13.25;77.66;99918.03;1051804;28;634;-70
2023/01/13 00:27:44;;;;;;;;;;;;;;;13.23;77.46;99918.19;1051089;28;1004;-70
2023/01/13 00:28:34;;;;;;;;;;;;;;;13.24;76.99;99919.88;1051636;28;646;-70
2023/01/13 00:29:25;;;;;;;;;;;;;;;13.23;77.47;99918.19;1050442;28;709;-70
2023/01/13 00:30:15;;;;;;;;;;;;;;;13.24;77.81;99914.53;1052251;28;662;-70
2023/01/13 00:31:05;;;;;;;;;;;;;;;13.22;77.33;99899.59;1051610;28;1202;-70
2023/01/13 00:31:57;;;;;;;;;;;;;;;13.23;77.65;99914.66;1051648;28;590;-70
2023/01/13 00:32:47;;;;;;;;;;;;;;;13.23;77.06;99918.19;1051535;28;643;-70
2023/01/13 00:33:37;;;;;;;;;;;;;;;13.22;77.39;99911.13;1051790;28;614;-70
2023/01/13 00:34:28;;;;;;;;;;;;;;;13.20;77.12;99897.03;1047966;28;698;-70
2023/01/13 00:35:18;;;;;;;;;;;;;;;13.20;77.04;99902.41;1048709;28;689;-71
2023/01/13 00:36:09;;;;;;;;;;;;;;;13.20;77.66;99899.72;1048823;28;636;-70
2023/01/13 00:36:59;;;;;;;;;;;;;;;13.19;77.00;99904.22;1047977;28;650;-70
2023/01/13 00:37:50;;;;;;;;;;;;;;;13.18;77.34;99902.53;1048097;28;650;-71
2023/01/13 00:38:41;;;;;;;;;;;;;;;13.18;76.77;99899.00;1047963;28;1959;-70
2023/01/13 00:39:32;;;;;;;;;;;;;;;13.18;77.21;99894.50;1051281;28;1067;-70
2023/01/13 00:40:22;;;;;;;;;;;;;;;13.19;77.12;99901.56;1051680;28;625;-70
2023/01/13 00:41:13;;;;;;;;;;;;;;;13.19;76.96;99898.03;1049311;28;1126;-70
2023/01/13 00:43:21;;;;;;;;;;;;;;;13.18;77.55;99899.00;1052281;28;1194;-70
2023/01/13 00:44:11;;;;;;;;;;;;;;;13.19;77.46;99908.72;1048132;28;650;-69
2023/01/13 00:45:02;;;;;;;;;;;;;;;13.18;77.36;99894.50;1051393;28;1186;-70
2023/01/13 00:45:53;;;;;;;;;;;;;;;13.19;77.65;99890.84;1049035;28;1119;-69
2023/01/13 00:46:43;;;;;;;;;;;;;;;13.17;77.06;99886.63;1051791;28;696;-70
2023/01/13 00:47:34;;;;;;;;;;;;;;;13.14;77.64;99886.84;1051807;28;696;-69
2023/01/13 00:48:24;;;;;;;;;;;;;;;13.14;76.92;99881.50;1048433;28;1008;-69
2023/01/13 00:49:14;;;;;;;;;;;;;;;13.15;77.23;99884.09;1048177;28;646;-69
2023/01/13 00:50:05;;;;;;;;;;;;;;;13.16;77.65;99884.94;1050737;28;1128;-70
2023/01/13 00:50:55;;;;;;;;;;;;;;;13.14;77.55;99877.00;1051687;28;561;-69
2023/01/13 00:51:46;;;;;;;;;;;;;;;13.15;77.51;99875.22;1051774;28;677;-69
2023/01/13 00:52:36;;;;;;;;;;;;;;;13.15;77.45;99872.53;1051647;28;602;-69
2023/01/13 00:53:27;;;;;;;;;;;;;;;13.12;77.51;99878.97;1051815;28;666;-69
2023/01/13 00:54:17;;;;;;;;;;;;;;;13.12;77.01;99865.59;1051629;28;709;-70
2023/01/13 00:55:08;;;;;;;;;;;;;;;13.12;77.59;99865.59;1051256;28;700;-69
2023/01/13 00:55:58;;;;;;;;;;;;;;;13.12;77.67;99875.44;1051295;28;1183;-69
2023/01/13 00:56:49;;;;;;;;;;;;;;;13.11;77.21;99882.63;1047474;28;674;-69
2023/01/13 00:57:39;;;;;;;;;;;;;;;13.12;77.60;99880.78;1048821;28;1147;-69
2023/01/13 00:58:29;;;;;;;;;;;;;;;13.10;77.46;99880.94;1053617;28;2022;-69
2023/01/13 00:59:20;;;;;;;;;;;;;;;13.10;76.94;99874.75;1049419;28;696;-69
2023/01/13 01:00:10;;;;;;;;;;;;;;;13.11;76.95;99873.75;1049863;28;677;-69
2023/01/13 01:01:01;;;;;;;;;;;;;;;13.11;77.08;99871.09;1050084;28;624;-69
2023/01/13 01:01:51;;;;;;;;;;;;;;;13.12;77.19;99880.78;1048718;28;685;-69
2023/01/13 01:02:42;;;;;;;;;;;;;;;13.11;77.66;99876.44;1052414;28;1068;-69
2023/01/13 01:03:32;;;;;;;;;;;;;;;13.12;77.53;99878.13;1048791;28;689;-69
2023/01/13 01:04:22;;;;;;;;;;;;;;;13.12;77.13;99883.47;1051057;28;1376;-70
2023/01/13 01:05:13;;;;;;;;;;;;;;;13.11;77.14;99882.63;1048701;28;645;-69
2023/01/13 01:06:03;;;;;;;;;;;;;;;13.10;77.56;99874.75;1050768;28;1179;-69
2023/01/13 01:06:54;;;;;;;;;;;;;;;13.13;77.45;99874.47;1053187;28;696;-70
2023/01/13 01:07:44;;;;;;;;;;;;;;;13.14;77.19;99873.47;1048857;28;1167;-69
2023/01/13 01:08:35;;;;;;;;;;;;;;;13.15;77.54;99869.84;1048559;28;705;-70
2023/01/13 01:09:31;;;;;;;;;;;;;;;13.15;77.59;99867.19;1052051;28;1016;-70
2023/01/13 01:10:21;;;;;;;;;;;;;;;13.13;77.50;99861.09;1052458;28;658;-70
2023/01/13 01:11:12;;;;;;;;;;;;;;;13.13;77.83;99859.25;1052033;28;681;-69
2023/01/13 01:12:02;;;;;;;;;;;;;;;13.10;76.95;99853.34;1052379;28;650;-69
2023/01/13 01:12:53;;;;;;;;;;;;;;;13.07;77.72;99859.84;1051707;28;941;-70
2023/01/13 01:13:43;;;;;;;;;;;;;;;13.09;77.24;99867.69;1052218;28;1127;-69
2023/01/13 01:14:34;;;;;;;;;;;;;;;13.07;77.67;99859.00;1048957;28;654;-70
2023/01/13 01:15:24;;;;;;;;;;;;;;;13.07;77.13;99861.66;1049103;28;1269;-70
2023/01/13 01:16:15;;;;;;;;;;;;;;;13.06;77.15;99852.81;1048855;28;609;-69
2023/01/13 01:17:05;;;;;;;;;;;;;;;13.07;77.22;99862.53;1049966;28;1064;-70
2023/01/13 01:17:55;;;;;;;;;;;;;;;13.09;77.76;99852.50;1052312;28;1666;-69
2023/01/13 01:18:46;;;;;;;;;;;;;;;13.06;76.94;99842.09;1047894;28;1898;-69
2023/01/13 01:19:37;;;;;;;;;;;;;;;13.07;77.95;99849.16;1052228;28;1278;-70
2023/01/13 01:20:28;;;;;;;;;;;;;;;13.06;77.17;99852.81;1052309;28;1147;-69
2023/01/13 01:21:18;;;;;;;;;;;;;;;13.06;77.40;99844.78;1052838;28;693;-69
2023/01/13 01:22:08;;;;;;;;;;;;;;;13.07;77.24;99864.34;1052161;28;1029;-70
2023/01/13 01:22:59;;;;;;;;;;;;;;;13.05;77.45;99858.28;1052080;28;643;-69
2023/01/13 01:23:50;;;;;;;;;;;;;;;13.03;77.60;99854.91;1052405;28;870;-69
2023/01/13 01:24:40;;;;;;;;;;;;;;;13.05;77.82;99869.84;1052207;28;1190;-69
2023/01/13 01:25:30;;;;;;;;;;;;;;;13.06;77.61;99868.00;1052301;28;677;-69
2023/01/13 01:26:21;;;;;;;;;;;;;;;13.06;77.82;99876.03;1052799;28;552;-69
2023/01/13 01:27:11;;;;;;;;;;;;;;;13.06;77.59;99873.34;1052162;28;642;-69
2023/01/13 01:28:02;;;;;;;;;;;;;;;13.03;77.70;99874.47;1052343;28;1131;-70
2023/01/13 01:28:52;;;;;;;;;;;;;;;13.04;78.07;99891.38;1051744;28;749;-69
2023/01/13 01:29:43;;;;;;;;;;;;;;;13.04;77.22;99876.16;1052969;28;740;-69
2023/01/13 01:30:33;;;;;;;;;;;;;;;13.04;77.21;99878.84;1052196;28;638;-70
2023/01/13 01:31:24;;;;;;;;;;;;;;;13.03;77.24;99890.53;1052287;28;666;-69
2023/01/13 01:32:14;;;;;;;;;;;;;;;13.03;77.40;99890.53;1049285;28;703;-69
2023/01/13 01:33:05;;;;;;;;;;;;;;;13.05;77.24;99885.88;1048729;28;700;-69
2023/01/13 01:33:55;;;;;;;;;;;;;;;13.03;77.06;99890.53;1049215;28;1107;-69
2023/01/13 01:34:45;;;;;;;;;;;;;;;13.04;77.13;99902.06;1052288;28;638;-70
2023/01/13 01:35:36;;;;;;;;;;;;;;;13.05;77.46;99901.09;1051839;28;1130;-69
2023/01/13 01:36:28;;;;;;;;;;;;;;;13.06;77.38;99913.47;1052296;28;693;-69
2023/01/13 01:37:19;;;;;;;;;;;;;;;13.07;77.17;99901.78;1049291;28;709;-69
2023/01/13 01:38:09;;;;;;;;;;;;;;;13.06;77.71;99906.28;1048847;28;753;-69
2023/01/13 01:39:00;;;;;;;;;;;;;;;13.07;77.94;99909.81;1052217;28;1963;-69
2023/01/13 01:39:50;;;;;;;;;;;;;;;13.08;77.42;99908.81;1052488;28;1217;-69
2023/01/13 01:40:40;;;;;;;;;;;;;;;13.08;77.25;99903.44;1052870;28;634;-69
2023/01/13 01:41:31;;;;;;;;;;;;;;;13.08;77.86;99906.13;1051217;28;929;-69
2023/01/13 01:44:54;;;;;;;;;;;;;;;13.06;77.54;99889.41;1044364;28;1443;-70
2023/01/13 01:45:44;;;;;;;;;;;;;;;13.07;77.34;99888.41;1050407;28;1242;-69
2023/01/13 01:46:34;;;;;;;;;;;;;;;13.08;77.12;99895.44;1049290;28;637;-69
2023/01/13 01:47:25;;;;;;;;;;;;;;;13.08;77.43;99893.59;1052478;28;652;-69
2023/01/13 01:48:15;;;;;;;;;;;;;;;13.06;76.99;99878.69;1049294;28;1035;-69
2023/01/13 01:49:06;;;;;;;;;;;;;;;13.07;77.79;99875.88;1052397;28;660;-69
2023/01/13 01:49:56;;;;;;;;;;;;;;;13.08;77.57;99885.56;1051313;28;1095;-69
2023/01/13 01:50:47;;;;;;;;;;;;;;;13.06;77.72;99878.69;1052108;28;1155;-70
2023/01/13 01:51:37;;;;;;;;;;;;;;;13.08;77.90;99876.72;1049212;28;748;-70
2023/01/13 01:52:27;;;;;;;;;;;;;;;13.06;77.78;99878.69;1052193;28;660;-70
2023/01/13 01:53:18;;;;;;;;;;;;;;;13.07;77.58;99877.72;1053498;28;617;-70
2023/01/13 01:54:08;;;;;;;;;;;;;;;13.08;77.57;99874.03;1052113;28;662;-70
2023/01/13 01:54:59;;;;;;;;;;;;;;;13.06;77.80;99865.31;1052309;28;642;-70
2023/01/13 01:55:49;;;;;;;;;;;;;;;13.06;77.71;99874.19;1051842;28;1179;-70
2023/01/13 01:56:40;;;;;;;;;;;;;;;13.07;77.18;99875.03;1052279;28;606;-69
2023/01/13 01:57:30;;;;;;;;;;;;;;;13.06;77.21;99878.69;1044837;28;662;-69
2023/01/13 01:58:20;;;;;;;;;;;;;;;13.08;77.46;99866.00;1044831;28;650;-69
2023/01/13 01:59:11;;;;;;;;;;;;;;;13.09;77.66;99870.38;1051275;28;1209;-69
2023/01/13 02:00:04;;;;;;;;;;;;;;;13.06;77.08;99868.00;1052105;28;677;-69
2023/01/13 02:00:55;;;;;;;;;;;;;;;13.06;77.69;99870.69;1048799;28;1071;-69
2023/01/13 02:01:45;;;;;;;;;;;;;;;13.06;77.70;99862.66;1052055;28;633;-69
2023/01/13 02:02:36;;;;;;;;;;;;;;;13.06;77.30;99860.81;1045230;28;672;-69
2023/01/13 02:03:26;;;;;;;;;;;;;;;13.06;77.36;99863.50;1048023;28;1646;-69
2023/01/13 02:04:16;;;;;;;;;;;;;;;13.05;77.68;99867.16;1053332;28;672;-69
2023/01/13 02:05:07;;;;;;;;;;;;;;;13.05;77.77;99866.31;1047845;28;658;-69
2023/01/13 02:05:57;;;;;;;;;;;;;;;13.05;77.36;99868.97;1047972;28;1017;-69
2023/01/13 02:06:48;;;;;;;;;;;;;;;13.07;77.86;99857.16;1052698;28;1202;-69
2023/01/13 02:07:38;;;;;;;;;;;;;;;13.07;77.73;99864.34;1048759;28;778;-69
2023/01/13 02:08:29;;;;;;;;;;;;;;;13.08;77.25;99860.66;1048070;28;963;-69
2023/01/13 02:09:19;;;;;;;;;;;;;;;13.06;77.12;99878.69;1051723;28;1082;-69
2023/01/13 02:10:10;;;;;;;;;;;;;;;13.07;77.22;99869.69;1051886;28;1174;-68
2023/01/13 02:11:00;;;;;;;;;;;;;;;13.06;77.72;99873.34;1051846;28;661;-69
2023/01/13 02:12:59;;;;;;;;;;;;;;;13.08;77.20;99876.72;1052494;28;1079;-69
2023/01/13 02:13:50;;;;;;;;;;;;;;;13.07;77.81;99880.41;1048701;28;701;-70
2023/01/13 02:14:40;;;;;;;;;;;;;;;13.06;77.81;99878.69;1048821;28;1190;-69
2023/01/13 02:15:31;;;;;;;;;;;;;;;13.07;77.18;99872.38;1048517;28;696;-69
2023/01/13 02:16:21;;;;;;;;;;;;;;;13.06;77.76;99873.34;1049517;28;1159;-69
2023/01/13 02:17:11;;;;;;;;;;;;;;;13.05;77.45;99877.84;1048469;28;649;-69
2023/01/13 02:18:02;;;;;;;;;;;;;;;13.06;77.75;99889.41;1048133;28;630;-69
2023/01/13 02:18:52;;;;;;;;;;;;;;;13.06;77.36;99868.84;1049020;28;1898;-69
2023/01/13 02:19:43;;;;;;;;;;;;;;;13.08;77.33;99871.34;1049449;28;1003;-69
2023/01/13 02:20:33;;;;;;;;;;;;;;;13.05;77.57;99858.28;1052049;28;701;-69
2023/01/13 02:21:24;;;;;;;;;;;;;;;13.06;77.17;99868.00;1052054;28;729;-69
2023/01/13 02:22:14;;;;;;;;;;;;;;;13.07;77.40;99867.03;1053253;28;660;-69
2023/01/13 02:23:04;;;;;;;;;;;;;;;13.04;77.63;99857.44;1049655;28;712;-69
2023/01/13 02:25:04;;;;;;;;;;;;;;;13.02;77.61;99864.75;1049051;28;736;-69
2023/01/13 02:25:54;;;;;;;;;;;;;;;13.01;77.76;99854.19;1048470;28;640;-69
2023/01/13 02:26:45;;;;;;;;;;;;;;;12.99;77.94;99850.81;1047613;28;856;-69
2023/01/13 02:27:35;;;;;;;;;;;;;;;12.98;77.37;99860.66;1048443;28;696;-69
2023/01/13 02:28:26;;;;;;;;;;;;;;;12.97;77.63;99850.09;1049228;28;680;-69
2023/01/13 02:31:40;;;;;;;;;;;;;;;12.99;77.86;99840.13;1049150;28;769;-69
2023/01/13 02:32:31;;;;;;;;;;;;;;;12.99;77.33;99846.31;1049144;28;718;-69
2023/01/13 02:33:21;;;;;;;;;;;;;;;13.00;78.08;99841.81;1052603;28;629;-69
2023/01/13 02:34:12;;;;;;;;;;;;;;;12.99;78.11;99837.44;1051066;28;729;-69
2023/01/13 02:35:02;;;;;;;;;;;;;;;12.98;77.89;99830.41;1047838;28;617;-69
2023/01/13 02:35:53;;;;;;;;;;;;;;;12.97;77.77;99837.56;1050414;28;1166;-69
2023/01/13 02:36:43;;;;;;;;;;;;;;;12.97;77.18;99829.56;1052820;28;653;-69
2023/01/13 02:37:33;;;;;;;;;;;;;;;12.96;77.61;99825.19;1051583;28;965;-70
2023/01/13 02:38:24;;;;;;;;;;;;;;;12.95;77.35;99822.66;1052174;28;706;-70
2023/01/13 02:39:14;;;;;;;;;;;;;;;12.94;77.87;99815.63;1048887;28;1969;-70
2023/01/13 02:40:05;;;;;;;;;;;;;;;12.95;77.80;99828.84;1052162;28;672;-70
2023/01/13 02:40:58;;;;;;;;;;;;;;;12.95;77.91;99819.97;1048255;28;630;-70
2023/01/13 02:44:06;;;;;;;;;;;;;;;12.93;78.06;99827.28;1051753;28;853;-70
2023/01/13 02:44:57;;;;;;;;;;;;;;;12.95;77.55;99822.66;1052166;28;650;-70
2023/01/13 02:45:47;;;;;;;;;;;;;;;12.94;77.75;99819.13;1050820;28;1016;-70
2023/01/13 02:46:38;;;;;;;;;;;;;;;12.95;77.83;99833.34;1052180;28;614;-70
2023/01/13 02:47:28;;;;;;;;;;;;;;;12.94;77.67;99824.47;1051842;28;1075;-70
2023/01/13 02:48:19;;;;;;;;;;;;;;;12.92;77.12;99821.09;1052421;28;1155;-70
2023/01/13 02:49:09;;;;;;;;;;;;;;;12.94;77.64;99828.97;1048273;28;575;-70
2023/01/13 02:49:59;;;;;;;;;;;;;;;12.93;77.37;99829.97;1051925;28;614;-70
2023/01/13 02:50:50;;;;;;;;;;;;;;;12.94;77.74;99818.28;1050292;28;1146;-69
2023/01/13 02:51:40;;;;;;;;;;;;;;;12.94;77.76;99826.31;1052005;28;630;-70
2023/01/13 02:52:31;;;;;;;;;;;;;;;12.94;77.80;99820.97;1048501;28;805;-69
2023/01/13 02:53:21;;;;;;;;;;;;;;;12.94;77.20;99828.97;1050131;28;733;-69
2023/01/13 02:54:12;;;;;;;;;;;;;;;12.94;77.65;99831.66;1048689;28;693;-69
2023/01/13 02:55:02;;;;;;;;;;;;;;;12.93;77.76;99827.28;1048159;28;658;-69
2023/01/13 02:55:52;;;;;;;;;;;;;;;12.91;77.98;99827.44;1051735;28;1111;-69
2023/01/13 02:56:43;;;;;;;;;;;;;;;12.91;77.40;99822.06;1052127;28;730;-69
2023/01/13 02:57:33;;;;;;;;;;;;;;;12.92;77.85;99828.28;1051876;28;613;-69
2023/01/13 02:58:24;;;;;;;;;;;;;;;12.92;77.35;99838.97;1052583;28;673;-69
2023/01/13 02:59:14;;;;;;;;;;;;;;;12.91;77.72;99831.94;1051958;28;693;-69
2023/01/13 03:00:05;;;;;;;;;;;;;;;12.92;77.32;99836.28;1052625;28;761;-70
2023/01/13 03:00:55;;;;;;;;;;;;;;;12.92;77.76;99830.94;1051580;28;1182;-69
2023/01/13 03:01:46;;;;;;;;;;;;;;;12.92;77.58;99833.63;1051849;28;1055;-69
2023/01/13 03:02:37;;;;;;;;;;;;;;;12.92;77.10;99828.28;1048469;28;646;-70
2023/01/13 03:03:27;;;;;;;;;;;;;;;12.91;77.16;99838.13;1050388;28;1245;-69
2023/01/13 03:04:18;;;;;;;;;;;;;;;12.91;77.56;99824.75;1052046;28;677;-70
2023/01/13 03:05:08;;;;;;;;;;;;;;;12.91;77.08;99831.94;1050823;28;1118;-69
2023/01/13 03:05:59;;;;;;;;;;;;;;;12.90;77.22;99835.63;1051823;28;1123;-69
2023/01/13 03:06:49;;;;;;;;;;;;;;;12.89;77.79;99825.91;1047863;28;642;-69
2023/01/13 03:07:39;;;;;;;;;;;;;;;12.88;77.75;99821.53;1048323;28;1210;-69
2023/01/13 03:08:30;;;;;;;;;;;;;;;12.88;77.09;99835.75;1048445;28;681;-70
2023/01/13 03:09:20;;;;;;;;;;;;;;;12.89;77.65;99833.91;1049256;28;790;-70
2023/01/13 03:10:11;;;;;;;;;;;;;;;12.91;77.67;99834.59;1051507;28;744;-70
2023/01/13 03:11:04;;;;;;;;;;;;;;;12.90;77.65;99824.91;1050815;28;1193;-70
2023/01/13 03:11:55;;;;;;;;;;;;;;;12.89;77.96;99825.91;1049275;28;1587;-70
2023/01/13 03:12:45;;;;;;;;;;;;;;;12.89;77.59;99833.91;1052927;28;704;-70
2023/01/13 03:13:36;;;;;;;;;;;;;;;12.90;77.68;99835.63;1051734;28;1190;-70
2023/01/13 03:14:26;;;;;;;;;;;;;;;12.90;77.52;99836.44;1048646;28;762;-70
2023/01/13 03:15:16;;;;;;;;;;;;;;;12.91;77.72;99835.44;1048902;28;1182;-70
2023/01/13 03:16:07;;;;;;;;;;;;;;;12.90;77.74;99831.09;1052971;28;1017;-70
2023/01/13 03:16:58;;;;;;;;;;;;;;;12.90;77.23;99835.63;1051695;28;749;-70
2023/01/13 03:17:48;;;;;;;;;;;;;;;12.89;77.12;99839.28;1048143;28;679;-70
2023/01/13 03:18:39;;;;;;;;;;;;;;;12.89;77.81;99839.28;1048295;28;1964;-70
2023/01/13 03:19:29;;;;;;;;;;;;;;;12.89;77.44;99836.59;1048168;28;801;-69
2023/01/13 03:20:20;;;;;;;;;;;;;;;12.88;77.16;99848.28;1051969;28;654;-70
2023/01/13 03:21:10;;;;;;;;;;;;;;;12.86;77.69;99843.91;1052514;28;657;-70
2023/01/13 03:22:00;;;;;;;;;;;;;;;12.88;77.26;99834.91;1051316;28;638;-70
2023/01/13 03:22:52;;;;;;;;;;;;;;;12.85;77.62;99838.69;1052525;28;645;-70
2023/01/13 03:23:42;;;;;;;;;;;;;;;12.86;77.59;99821.69;1048583;28;593;-70
2023/01/13 03:24:32;;;;;;;;;;;;;;;12.85;77.10;99842.22;1049050;28;1151;-70
2023/01/13 03:25:23;;;;;;;;;;;;;;;12.88;77.29;99832.22;1053064;28;712;-70
2023/01/13 03:26:14;;;;;;;;;;;;;;;12.89;77.28;99832.09;1051628;28;1206;-70
2023/01/13 03:27:04;;;;;;;;;;;;;;;12.89;77.57;99834.78;1052014;28;734;-70
2023/01/13 03:27:54;;;;;;;;;;;;;;;12.89;77.47;99842.78;1051698;28;1080;-70
2023/01/13 03:28:45;;;;;;;;;;;;;;;12.89;77.98;99828.56;1052299;28;945;-70
2023/01/13 03:29:35;;;;;;;;;;;;;;;12.89;77.21;99844.63;1051719;28;653;-70
2023/01/13 03:30:26;;;;;;;;;;;;;;;12.90;77.26;99846.31;1051919;28;706;-70
2023/01/13 03:31:16;;;;;;;;;;;;;;;12.91;77.31;99847.97;1052928;28;1159;-70
2023/01/13 03:32:06;;;;;;;;;;;;;;;12.91;77.41;99847.97;1051751;28;718;-70
2023/01/13 03:32:57;;;;;;;;;;;;;;;12.88;77.28;99838.44;1051800;28;1298;-69
2023/01/13 03:33:48;;;;;;;;;;;;;;;12.90;77.84;99846.31;1051653;28;702;-69
2023/01/13 03:34:39;;;;;;;;;;;;;;;12.90;77.25;99840.97;1051599;28;1174;-70
2023/01/13 03:35:29;;;;;;;;;;;;;;;12.91;77.36;99837.28;1048134;28;641;-69
2023/01/13 03:36:20;;;;;;;;;;;;;;;12.92;77.33;99833.63;1047747;28;752;-69
2023/01/13 03:37:10;;;;;;;;;;;;;;;12.93;77.89;99829.97;1048102;28;689;-70
2023/01/13 03:38:01;;;;;;;;;;;;;;;12.93;77.04;99833.47;1048306;28;1187;-70
2023/01/13 03:38:51;;;;;;;;;;;;;;;12.94;77.34;99826.31;1048383;28;1886;-70
2023/01/13 03:39:41;;;;;;;;;;;;;;;12.94;77.67;99826.31;1048297;28;602;-70
2023/01/13 03:40:32;;;;;;;;;;;;;;;12.92;77.14;99833.63;1051966;28;650;-69
2023/01/13 03:41:22;;;;;;;;;;;;;;;12.92;77.16;99817.56;1052169;28;1640;-69
2023/01/13 03:42:13;;;;;;;;;;;;;;;12.93;77.04;99821.94;1051694;28;1164;-69
2023/01/13 03:44:22;;;;;;;;;;;;;;;12.90;77.48;99817.72;1048237;28;699;-70
2023/01/13 03:45:12;;;;;;;;;;;;;;;12.91;77.74;99822.06;1050974;28;1381;-70
2023/01/13 03:46:03;;;;;;;;;;;;;;;12.91;77.26;99826.56;1052165;28;1131;-70
2023/01/13 03:46:53;;;;;;;;;;;;;;;12.92;77.67;99833.63;1048862;28;719;-70
2023/01/13 03:47:43;;;;;;;;;;;;;;;12.90;77.55;99832.94;1050135;28;1166;-70
2023/01/13 03:48:34;;;;;;;;;;;;;;;12.89;77.18;99823.22;1052428;28;781;-70
2023/01/13 03:49:24;;;;;;;;;;;;;;;12.89;77.93;99826.75;1051691;28;701;-70
2023/01/13 03:50:15;;;;;;;;;;;;;;;12.88;77.03;99827.72;1051688;28;1190;-70
2023/01/13 03:51:05;;;;;;;;;;;;;;;12.88;77.49;99826.88;1051589;28;729;-70
2023/01/13 03:51:56;;;;;;;;;;;;;;;12.86;77.37;99824.34;1051649;28;1266;-70
2023/01/13 03:52:46;;;;;;;;;;;;;;;12.84;77.01;99824.47;1052149;28;840;-70
2023/01/13 03:53:37;;;;;;;;;;;;;;;12.85;76.97;99822.66;1051356;28;610;-70
2023/01/13 03:54:27;;;;;;;;;;;;;;;12.84;77.14;99827.16;1052433;28;796;-70
2023/01/13 03:55:17;;;;;;;;;;;;;;;12.85;77.16;99834.19;1048793;28;712;-70
2023/01/13 03:56:08;;;;;;;;;;;;;;;12.85;77.44;99836.03;1051015;28;960;-70
2023/01/13 03:56:58;;;;;;;;;;;;;;;12.88;77.63;99832.22;1051650;28;653;-70
2023/01/13 03:57:49;;;;;;;;;;;;;;;12.85;77.73;99839.53;1052369;28;758;-70
2023/01/13 03:58:40;;;;;;;;;;;;;;;12.87;77.03;99831.38;1051920;28;1895;-69
2023/01/13 03:59:30;;;;;;;;;;;;;;;12.83;77.03;99830.81;1052003;28;741;-70
2023/01/13 04:00:21;;;;;;;;;;;;;;;12.85;77.63;99828.00;1051638;28;1174;-69
2023/01/13 04:01:11;;;;;;;;;;;;;;;12.85;77.29;99839.53;1044920;28;692;-69
2023/01/13 04:02:01;;;;;;;;;;;;;;;12.89;77.09;99832.09;1044379;28;1197;-69
2023/01/13 04:02:52;;;;;;;;;;;;;;;12.91;77.58;99824.75;1049216;28;645;-69
2023/01/13 04:03:42;;;;;;;;;;;;;;;12.89;76.89;99815.22;1047783;28;1388;-69
2023/01/13 04:04:33;;;;;;;;;;;;;;;12.89;77.21;99828.56;1043832;28;601;-70
2023/01/13 04:05:23;;;;;;;;;;;;;;;12.88;77.48;99822.38;1051970;28;622;-69
2023/01/13 04:06:14;;;;;;;;;;;;;;;12.88;77.74;99824.22;1051676;28;1159;-69
2023/01/13 04:07:04;;;;;;;;;;;;;;;12.89;77.72;99828.56;1051922;28;737;-70
2023/01/13 04:07:55;;;;;;;;;;;;;;;12.89;77.13;99823.22;1051665;28;1222;-70
2023/01/13 04:08:45;;;;;;;;;;;;;;;12.88;77.49;99827.72;1051966;28;706;-70
2023/01/13 04:09:35;;;;;;;;;;;;;;;12.88;77.75;99822.38;1051351;28;1170;-69
2023/01/13 04:10:26;;;;;;;;;;;;;;;12.87;77.20;99823.38;1052414;28;758;-69
2023/01/13 04:11:17;;;;;;;;;;;;;;;12.87;77.74;99828.72;1051695;28;685;-69
2023/01/13 04:12:07;;;;;;;;;;;;;;;12.85;77.87;99831.53;1052324;28;639;-70
2023/01/13 04:13:01;;;;;;;;;;;;;;;12.85;76.92;99826.19;1051750;28;1144;-70
2023/01/13 04:13:51;;;;;;;;;;;;;;;12.85;77.48;99833.34;1048092;28;630;-70
2023/01/13 04:14:42;;;;;;;;;;;;;;;12.86;77.27;99835.88;1051827;28;653;-70
2023/01/13 04:15:32;;;;;;;;;;;;;;;12.86;77.00;99827.88;1047463;28;1612;-70
2023/01/13 04:16:23;;;;;;;;;;;;;;;12.87;77.12;99826.03;1048936;28;1330;-70
2023/01/13 04:17:13;;;;;;;;;;;;;;;12.86;77.70;99827.88;1048251;28;716;-69
2023/01/13 04:18:03;;;;;;;;;;;;;;;12.85;76.90;99826.19;1049055;28;1128;-70
2023/01/13 04:18:54;;;;;;;;;;;;;;;12.84;77.16;99826.31;1048141;28;1949;-70
2023/01/13 04:19:45;;;;;;;;;;;;;;;12.82;77.03;99829.13;1048714;28;1108;-70
2023/01/13 04:20:36;;;;;;;;;;;;;;;12.83;77.48;99828.13;1051820;28;685;-69
2023/01/13 04:21:26;;;;;;;;;;;;;;;12.82;77.19;99829.13;1051116;28;710;-69
2023/01/13 04:22:17;;;;;;;;;;;;;;;12.82;77.74;99831.78;1052347;28;696;-70
2023/01/13 04:23:07;;;;;;;;;;;;;;;12.82;77.10;99818.44;1051859;28;744;-70
2023/01/13 04:23:57;;;;;;;;;;;;;;;12.80;77.27;99825.75;1051429;28;1027;-70
2023/01/13 04:24:48;;;;;;;;;;;;;;;12.80;76.85;99819.53;1051832;28;758;-70
2023/01/13 04:25:38;;;;;;;;;;;;;;;12.81;77.19;99832.78;1051410;28;1131;-70
2023/01/13 04:26:29;;;;;;;;;;;;;;;12.83;77.16;99825.47;1051791;28;677;-70
2023/01/13 04:27:19;;;;;;;;;;;;;;;12.84;77.59;99827.16;1051825;28;1162;-70
2023/01/13 04:28:10;;;;;;;;;;;;;;;12.84;77.02;99821.81;1051557;28;757;-70
2023/01/13 04:29:00;;;;;;;;;;;;;;;12.82;77.72;99820.25;1051825;28;638;-70
2023/01/13 04:29:50;;;;;;;;;;;;;;;12.81;77.56;99826.59;1047981;28;779;-70
2023/01/13 04:30:41;;;;;;;;;;;;;;;12.80;77.46;99825.75;1048337;28;638;-70
2023/01/13 04:31:31;;;;;;;;;;;;;;;12.80;77.09;99812.38;1051695;28;1103;-70
2023/01/13 04:32:22;;;;;;;;;;;;;;;12.81;77.09;99821.22;1051704;28;634;-70
2023/01/13 04:33:12;;;;;;;;;;;;;;;12.81;77.19;99827.44;1048996;28;665;-70
2023/01/13 04:34:02;;;;;;;;;;;;;;;12.81;76.89;99814.06;1048850;28;642;-70
2023/01/13 04:34:53;;;;;;;;;;;;;;;12.82;77.38;99828.28;1051819;28;1091;-70
2023/01/13 04:35:43;;;;;;;;;;;;;;;12.80;77.38;99820.38;1052439;28;559;-70
2023/01/13 04:36:34;;;;;;;;;;;;;;;12.80;76.81;99824.91;1052551;28;641;-70
2023/01/13 04:37:24;;;;;;;;;;;;;;;12.81;77.57;99819.41;1051988;28;733;-70
2023/01/13 04:38:15;;;;;;;;;;;;;;;12.80;77.09;99820.38;1049553;28;645;-70
2023/01/13 04:39:05;;;;;;;;;;;;;;;12.80;77.35;99822.22;1049529;28;1907;-70
2023/01/13 04:39:57;;;;;;;;;;;;;;;12.80;76.82;99823.06;1052583;28;681;-70
2023/01/13 04:40:47;;;;;;;;;;;;;;;12.80;77.61;99825.75;1052652;28;641;-70